Time;durP1;ratioP1;P1;durP2;ratioP2;P2;SDS_P1;SDS_P2;PMS_P1;PMS_P2;Temp;Humidity;BMP_temperature;BMP_pressure;BME280_temperature;BME280_humidity;BME280_pressure;Samples;Min_cycle;Max_cycle;Signal;HPM_P1;HPM_P2
2021/10/13 00:00:53;;;;;;;11.00;6.28;;;;;;;5.52;100.00;99393.53;5092812;28;20047;-82
2021/10/13 00:03:21;;;;;;;13.00;6.93;;;;;;;5.56;100.00;99396.78;5092117;28;20040;-83
2021/10/13 00:05:48;;;;;;;13.27;6.70;;;;;;;5.57;100.00;99391.25;5105345;28;20142;-83
2021/10/13 00:08:15;;;;;;;11.98;6.53;;;;;;;5.48;100.00;99365.19;5113290;28;20057;-83
2021/10/13 00:10:44;;;;;;;13.15;7.85;;;;;;;5.71;100.00;99389.09;5106323;28;20047;-83
2021/10/13 00:13:11;;;;;;;12.30;6.07;;;;;;;5.61;100.00;99384.53;5113083;28;20044;-82
2021/10/13 00:15:38;;;;;;;10.95;5.88;;;;;;;5.71;100.00;99395.31;5108563;28;20051;-83
2021/10/13 00:18:14;;;;;;;12.60;6.40;;;;;;;5.78;100.00;99393.72;5111958;28;20047;-83
2021/10/13 00:20:42;;;;;;;12.57;6.45;;;;;;;5.82;100.00;99400.50;5093001;28;20051;-83
2021/10/13 00:23:10;;;;;;;12.35;6.50;;;;;;;5.83;100.00;99390.59;5111449;28;20066;-83
2021/10/13 00:25:37;;;;;;;11.05;7.43;;;;;;;5.86;100.00;99406.47;5112550;28;20039;-82
2021/10/13 00:28:04;;;;;;;10.75;7.07;;;;;;;5.79;100.00;99402.66;5092374;28;20059;-83
2021/10/13 00:30:31;;;;;;;10.38;7.15;;;;;;;5.95;100.00;99404.72;5092406;28;20056;-83
2021/10/13 00:32:58;;;;;;;13.68;7.43;;;;;;;6.04;100.00;99417.34;5111134;28;20040;-83
2021/10/13 00:35:25;;;;;;;10.63;5.88;;;;;;;5.99;100.00;99403.44;5110337;28;20505;-83
2021/10/13 00:37:54;;;;;;;11.43;6.97;;;;;;;5.92;100.00;99396.94;5091986;28;20044;-83
2021/10/13 00:40:21;;;;;;;8.75;5.47;;;;;;;5.92;100.00;99418.53;5108487;28;20047;-83
2021/10/13 00:42:49;;;;;;;10.10;5.75;;;;;;;5.80;100.00;99405.22;5112843;28;20044;-83
2021/10/13 00:45:16;;;;;;;10.27;6.00;;;;;;;5.88;100.00;99403.63;5106168;28;20040;-83
2021/10/13 00:47:43;;;;;;;10.52;6.35;;;;;;;6.07;100.00;99429.69;5092306;28;20074;-83
2021/10/13 00:50:13;;;;;;;11.70;6.53;;;;;;;6.03;100.00;99418.34;5092446;28;20488;-83
2021/10/13 00:52:42;;;;;;;14.88;6.80;;;;;;;6.18;100.00;99430.34;5092291;28;20143;-83
2021/10/13 00:55:17;;;;;;;12.07;7.43;;;;;;;6.11;100.00;99415.78;5093074;28;20048;-83
2021/10/13 00:57:45;;;;;;;10.82;7.25;;;;;;;6.12;100.00;99427.41;5093604;28;20494;-84
2021/10/13 01:00:16;;;;;;;12.65;6.78;;;;;;;6.10;100.00;99408.66;5091907;28;20105;-83
2021/10/13 01:02:53;;;;;;;13.20;7.18;;;;;;;6.16;100.00;99415.31;5097101;28;20075;-84
2021/10/13 01:05:34;;;;;;;10.23;6.57;;;;;;;6.11;100.00;99415.78;5091717;28;20044;-83
2021/10/13 01:08:06;;;;;;;11.57;6.13;;;;;;;6.14;100.00;99428.09;5100015;28;20048;-83
2021/10/13 01:10:44;;;;;;;13.15;6.82;;;;;;;6.05;100.00;99423.59;5112610;28;20062;-83
2021/10/13 01:13:23;;;;;;;9.75;6.78;;;;;;;6.17;100.00;99447.56;5103809;28;20492;-83
2021/10/13 01:16:00;;;;;;;10.18;6.70;;;;;;;6.24;100.00;99445.09;5112559;28;20081;-83
2021/10/13 01:18:31;;;;;;;8.75;5.70;;;;;;;6.10;100.00;99445.63;5096971;28;20226;-84
2021/10/13 01:21:12;;;;;;;12.38;6.57;;;;;;;6.15;100.00;99456.81;5095840;28;20073;-84
2021/10/13 01:23:56;;;;;;;14.18;7.07;;;;;;;6.15;100.00;99448.69;5095827;28;20109;-84
2021/10/13 01:26:34;;;;;;;11.77;6.35;;;;;;;6.19;100.00;99456.34;5095701;28;20101;-83
2021/10/13 01:29:08;;;;;;;8.93;6.07;;;;;;;6.20;100.00;99444.56;5098404;27;20051;-83
2021/10/13 01:31:41;;;;;;;10.80;6.70;;;;;;;6.28;100.00;99468.09;5115987;28;20081;-83
2021/10/13 01:34:14;;;;;;;13.00;6.22;;;;;;;6.17;100.00;99444.84;5099697;28;20506;-83
2021/10/13 01:36:50;;;;;;;9.77;6.25;;;;;;;6.24;100.00;99461.28;5096145;28;20047;-83
2021/10/13 01:39:18;;;;;;;13.20;6.90;;;;;;;6.15;100.00;99452.25;5095385;28;20044;-84
2021/10/13 01:41:47;;;;;;;10.77;6.25;;;;;;;6.22;100.00;99466.00;5098798;28;20040;-84
2021/10/13 01:44:19;;;;;;;12.45;6.68;;;;;;;6.18;100.00;99456.50;5101492;28;20047;-84
2021/10/13 01:46:46;;;;;;;10.45;6.70;;;;;;;6.33;100.00;99481.16;5108620;28;20044;-83
2021/10/13 01:49:17;;;;;;;10.82;6.63;;;;;;;6.23;100.00;99474.94;5095479;28;20071;-84
2021/10/13 01:51:44;;;;;;;;;;;;;;;6.32;100.00;99490.25;5114633;28;20410;-83
2021/10/13 01:54:15;;;;;;;15.50;6.95;;;;;;;6.32;100.00;99496.50;5115375;28;19964;-83
2021/10/13 01:56:44;;;;;;;12.60;6.72;;;;;;;6.40;100.00;99492.19;5096242;28;20054;-84
2021/10/13 01:59:20;;;;;;;14.20;7.55;;;;;;;6.33;100.00;99497.34;5101607;28;20077;-84
2021/10/13 02:01:49;;;;;;;13.20;6.80;;;;;;;6.39;100.00;99499.44;5113852;27;20056;-83
2021/10/13 02:04:17;;;;;;;12.68;7.35;;;;;;;6.32;100.00;99488.41;5114836;28;20055;-84
2021/10/13 02:06:47;;;;;;;12.73;7.00;;;;;;;6.40;100.00;99511.97;5115059;28;20047;-84
2021/10/13 02:09:16;;;;;;;10.73;6.72;;;;;;;6.40;100.00;99519.19;5115162;28;20475;-84
2021/10/13 02:11:46;;;;;;;14.25;6.80;;;;;;;6.28;100.00;99503.22;5115112;28;20047;-84
2021/10/13 02:14:16;;;;;;;11.35;7.22;;;;;;;6.25;100.00;99503.50;5101087;28;20059;-84
2021/10/13 02:16:51;;;;;;;14.80;6.97;;;;;;;6.34;100.00;99513.41;5094511;28;20044;-84
2021/10/13 02:19:29;;;;;;;11.05;6.57;;;;;;;6.40;100.00;99519.19;5096085;28;20048;-84
2021/10/13 02:22:02;;;;;;;9.70;5.93;;;;;;;6.44;100.00;99507.94;5095184;28;20131;-84
2021/10/13 02:24:35;;;;;;;11.48;6.18;;;;;;;6.46;100.00;99515.91;5114822;28;20052;-84
2021/10/13 02:27:07;;;;;;;13.95;7.68;;;;;;;6.32;100.00;99511.84;5112774;28;20052;-84
2021/10/13 02:29:34;;;;;;;12.07;7.32;;;;;;;6.42;100.00;99511.81;5114627;28;20043;-84
2021/10/13 02:32:03;;;;;;;13.38;7.75;;;;;;;6.44;100.00;99529.53;5109946;28;20051;-84
2021/10/13 02:34:31;;;;;;;16.95;7.50;;;;;;;6.35;100.00;99516.94;5114443;28;20080;-84
2021/10/13 02:36:59;;;;;;;16.30;7.65;;;;;;;6.37;100.00;99533.88;5099459;28;20520;-84
2021/10/13 02:39:26;;;;;;;14.25;7.75;;;;;;;6.29;100.00;99518.41;5114500;28;20063;-84
2021/10/13 02:41:53;;;;;;;14.38;8.00;;;;;;;6.28;100.00;99527.50;5114713;28;20051;-84
2021/10/13 02:44:20;;;;;;;15.27;7.85;;;;;;;6.37;100.00;99548.22;5097322;28;20089;-84
2021/10/13 02:46:57;;;;;;;20.02;9.75;;;;;;;6.26;100.00;99526.78;5098080;28;20071;-84
2021/10/13 02:49:43;;;;;;;39.50;10.35;;;;;;;6.31;100.00;99523.66;5094860;28;20063;-84
2021/10/13 02:52:23;;;;;;;15.35;8.52;;;;;;;6.45;100.00;99549.31;5093996;28;20048;-84
2021/10/13 02:55:11;;;;;;;12.10;7.30;;;;;;;6.34;100.00;99548.50;5093712;28;20052;-84
2021/10/13 02:57:44;;;;;;;12.77;7.53;;;;;;;6.37;100.00;99556.31;5113048;28;20048;-84
2021/10/13 03:00:13;;;;;;;15.00;8.13;;;;;;;6.24;100.00;99552.25;5107555;28;20411;-84
2021/10/13 03:02:50;;;;;;;14.00;8.20;;;;;;;6.24;100.00;99547.69;5094461;28;20044;-84
2021/10/13 03:05:25;;;;;;;15.75;9.05;;;;;;;6.32;100.00;99546.94;5110333;28;20328;-84
2021/10/13 03:07:56;;;;;;;14.32;8.48;;;;;;;6.27;100.00;99550.09;5113388;28;20056;-84
2021/10/13 03:10:29;;;;;;;17.17;9.43;;;;;;;6.21;100.00;99539.88;5093709;28;20059;-84
2021/10/13 03:12:59;;;;;;;17.48;9.15;;;;;;;6.29;100.00;99549.94;5093651;28;20087;-84
2021/10/13 03:15:27;;;;;;;12.95;8.63;;;;;;;6.23;100.00;99548.69;5094597;28;20052;-84
2021/10/13 03:17:57;;;;;;;14.30;8.82;;;;;;;6.37;100.00;99561.72;5096595;28;20052;-84
2021/10/13 03:20:27;;;;;;;17.90;8.82;;;;;;;6.26;100.00;99553.78;5093316;28;20044;-84
2021/10/13 03:22:56;;;;;;;17.15;9.85;;;;;;;6.19;100.00;99537.34;5093379;27;20093;-84
2021/10/13 03:25:24;;;;;;;17.05;7.85;;;;;;;6.16;100.00;99540.34;5093308;28;20054;-84
2021/10/13 03:27:51;;;;;;;16.38;8.93;;;;;;;6.12;100.00;99543.47;5093518;28;20089;-83
2021/10/13 03:30:18;;;;;;;16.85;8.75;;;;;;;6.13;100.00;99550.59;5095982;28;20394;-84
2021/10/13 03:32:45;;;;;;;17.00;8.77;;;;;;;6.24;100.00;99574.69;5112812;28;20481;-84
2021/10/13 03:35:21;;;;;;;15.43;8.88;;;;;;;6.12;100.00;99559.69;5093359;27;20501;-84
2021/10/13 03:37:49;;;;;;;17.60;8.63;;;;;;;6.24;100.00;99571.16;5093883;28;20499;-84
2021/10/13 03:40:17;;;;;;;16.83;8.90;;;;;;;6.19;100.00;99572.44;5110886;28;20047;-84
2021/10/13 03:42:44;;;;;;;16.52;8.90;;;;;;;6.10;100.00;99562.53;5093283;28;20047;-84
2021/10/13 03:45:13;;;;;;;17.25;8.32;;;;;;;6.22;100.00;99582.09;5093107;28;20438;-85
2021/10/13 03:47:40;;;;;;;19.40;8.90;;;;;;;6.14;100.00;99568.47;5093633;28;20143;-84
2021/10/13 03:50:09;;;;;;;16.70;9.30;;;;;;;6.20;100.00;99600.28;5109649;28;20753;-84
2021/10/13 03:52:36;;;;;;;17.13;8.80;;;;;;;6.18;100.00;99584.22;5103634;28;20052;-84
2021/10/13 03:55:09;;;;;;;16.20;8.10;;;;;;;6.10;100.00;99577.88;5093177;28;20411;-85
2021/10/13 03:57:39;;;;;;;22.00;9.20;;;;;;;6.15;100.00;99578.28;5103160;28;20044;-84
2021/10/13 04:00:09;;;;;;;15.05;8.60;;;;;;;6.11;100.00;99583.13;5112768;28;20044;-84
2021/10/13 04:02:36;;;;;;;16.17;7.15;;;;;;;6.11;100.00;99587.66;5096457;28;20046;-84
2021/10/13 04:05:06;;;;;;;15.07;8.80;;;;;;;6.15;100.00;99600.72;5112704;28;20061;-85
2021/10/13 04:07:33;;;;;;;17.95;8.32;;;;;;;5.93;100.00;99580.28;5111969;28;20052;-85
2021/10/13 04:10:00;;;;;;;16.20;8.50;;;;;;;5.88;100.00;99596.06;5104818;28;20059;-84
2021/10/13 04:12:30;;;;;;;17.20;8.95;;;;;;;5.86;100.00;99600.75;5112112;28;20067;-84
2021/10/13 04:14:56;;;;;;;14.52;8.52;;;;;;;5.73;100.00;99595.63;5092881;28;20468;-85
2021/10/13 04:17:25;;;;;;;15.98;9.27;;;;;;;5.83;100.00;99609.13;5104701;28;20069;-85
2021/10/13 04:19:57;;;;;;;18.00;9.60;;;;;;;5.71;100.00;99608.44;5112695;28;20039;-82
2021/10/13 04:22:25;;;;;;;13.20;8.68;;;;;;;5.65;100.00;99609.84;5113093;28;20077;-84
2021/10/13 04:24:52;;;;;;;18.17;9.20;;;;;;;5.66;100.00;99616.94;5104722;28;20058;-85
2021/10/13 04:27:19;;;;;;;19.45;10.55;;;;;;;5.71;100.00;99623.78;5093023;28;20055;-82
2021/10/13 04:29:47;;;;;;;18.70;9.55;;;;;;;5.66;100.00;99634.97;5098574;28;20039;-82
2021/10/13 04:32:14;;;;;;;18.30;9.52;;;;;;;5.62;100.00;99636.25;5111533;28;20047;-82
2021/10/13 04:34:40;;;;;;;19.45;10.30;;;;;;;5.62;100.00;99636.25;5111651;28;20414;-82
2021/10/13 04:37:07;;;;;;;20.05;10.80;;;;;;;5.56;100.00;99644.91;5111666;28;20113;-82
2021/10/13 04:39:34;;;;;;;38.55;12.27;;;;;;;5.54;100.00;99636.97;5112427;28;20047;-82
2021/10/13 04:42:01;;;;;;;74.43;10.82;;;;;;;5.48;100.00;99642.94;5103820;28;20125;-82
2021/10/13 04:44:28;;;;;;;109.85;12.27;;;;;;;5.44;100.00;99644.19;5094537;28;20051;-82
2021/10/13 04:46:56;;;;;;;155.88;11.70;;;;;;;5.14;100.00;99630.66;5109133;28;20066;-82
2021/10/13 04:49:23;;;;;;;153.35;11.45;;;;;;;5.16;100.00;99635.06;5100424;28;20125;-83
2021/10/13 04:51:49;;;;;;;94.63;10.23;;;;;;;5.06;100.00;99635.03;5096002;28;20503;-82
2021/10/13 04:54:17;;;;;;;59.72;10.13;;;;;;;5.12;100.00;99653.38;5097491;28;20051;-82
2021/10/13 04:56:44;;;;;;;61.03;10.68;;;;;;;5.20;100.00;99642.72;5096188;28;20056;-81
2021/10/13 04:59:11;;;;;;;103.35;11.13;;;;;;;5.19;100.00;99642.88;5104511;28;20044;-81
2021/10/13 05:01:41;;;;;;;108.38;11.60;;;;;;;5.28;100.00;99655.50;5099665;28;20048;-81
2021/10/13 05:04:09;;;;;;;189.93;13.30;;;;;;;5.01;100.00;99631.91;5095882;28;20076;-81
2021/10/13 05:06:36;;;;;;;165.23;11.23;;;;;;;5.07;100.00;99656.47;5095551;28;20518;-81
2021/10/13 05:09:03;;;;;;;231.35;12.75;;;;;;;5.13;100.00;99647.84;5096164;28;20040;-82
2021/10/13 05:11:29;;;;;;;178.95;13.73;;;;;;;5.16;100.00;99659.31;5095917;28;20048;-82
2021/10/13 05:13:56;;;;;;;134.40;15.23;;;;;;;5.11;100.00;99657.03;5095588;28;20491;-82
2021/10/13 05:16:23;;;;;;;191.02;13.48;;;;;;;5.13;100.00;99652.34;5095449;28;20097;-82
2021/10/13 05:18:49;;;;;;;93.40;12.18;;;;;;;5.18;100.00;99636.63;5095737;28;20051;-82
2021/10/13 05:21:18;;;;;;;160.63;12.43;;;;;;;5.32;100.00;99647.00;5108362;28;20108;-82
2021/10/13 05:23:45;;;;;;;125.20;13.98;;;;;;;5.22;100.00;99629.94;5116014;28;20104;-82
2021/10/13 05:26:12;;;;;;;164.85;14.23;;;;;;;5.30;100.00;99650.84;5109537;28;20089;-82
2021/10/13 05:28:39;;;;;;;145.07;13.45;;;;;;;5.26;100.00;99657.50;5099085;28;20510;-81
2021/10/13 05:31:06;;;;;;;149.43;14.85;;;;;;;5.28;100.00;99661.78;5104900;28;20093;-82
2021/10/13 05:33:32;;;;;;;139.60;14.35;;;;;;;5.31;100.00;99657.94;5095603;28;20097;-82
2021/10/13 05:35:59;;;;;;;112.80;13.32;;;;;;;5.35;100.00;99663.91;5102767;28;20128;-82
2021/10/13 05:38:27;;;;;;;103.15;14.27;;;;;;;5.41;100.00;99668.75;5098576;28;20849;-82
2021/10/13 05:40:54;;;;;;;70.22;15.63;;;;;;;5.36;100.00;99665.59;5100595;28;20079;-82
2021/10/13 05:43:23;;;;;;;73.78;14.45;;;;;;;5.43;100.00;99675.69;5096487;28;20509;-82
2021/10/13 05:45:53;;;;;;;46.97;14.23;;;;;;;5.39;100.00;99666.19;5099135;28;20062;-82
2021/10/13 05:48:20;;;;;;;33.58;13.63;;;;;;;5.49;100.00;99674.28;5095345;28;20143;-82
2021/10/13 05:50:47;;;;;;;26.58;12.88;;;;;;;5.51;100.00;99691.19;5095171;28;20040;-82
2021/10/13 05:53:13;;;;;;;32.13;13.63;;;;;;;5.52;100.00;99697.44;5097359;28;20076;-82
2021/10/13 05:55:41;;;;;;;31.85;13.98;;;;;;;5.59;100.00;99698.59;5100067;28;20056;-82
2021/10/13 05:58:08;;;;;;;35.53;14.00;;;;;;;5.53;100.00;99696.44;5110067;28;20098;-82
2021/10/13 06:00:36;;;;;;;26.98;12.93;;;;;;;5.54;100.00;99707.09;5115125;28;20134;-82
2021/10/13 06:03:02;;;;;;;30.55;14.40;;;;;;;5.59;100.00;99710.22;5110934;28;20044;-82
2021/10/13 06:05:29;;;;;;;37.53;14.35;;;;;;;5.55;100.00;99716.03;5115159;28;20101;-82
2021/10/13 06:07:56;;;;;;;29.08;14.07;;;;;;;5.65;100.00;99723.13;5103552;28;20074;-82
2021/10/13 06:10:24;;;;;;;31.38;13.60;;;;;;;5.68;100.00;99740.91;5104208;28;20442;-82
2021/10/13 06:12:52;;;;;;;32.55;13.80;;;;;;;5.64;100.00;99737.59;5095998;28;20052;-83
2021/10/13 06:15:20;;;;;;;31.65;13.50;;;;;;;5.60;100.00;99736.19;5095696;28;20044;-83
2021/10/13 06:17:47;;;;;;;30.75;12.80;;;;;;;5.75;100.00;99738.47;5096112;28;20048;-83
2021/10/13 06:20:14;;;;;;;23.77;12.00;;;;;;;5.56;100.00;99745.56;5095943;28;20044;-83
2021/10/13 06:22:41;;;;;;;30.38;12.55;;;;;;;5.53;100.00;99743.13;5095906;28;20040;-82
2021/10/13 06:25:09;;;;;;;30.90;13.65;;;;;;;5.48;100.00;99740.00;5095715;28;20117;-81
2021/10/13 06:27:35;;;;;;;24.85;12.38;;;;;;;5.53;100.00;99729.66;5096700;28;20388;-82
2021/10/13 06:30:12;;;;;;;24.20;12.05;;;;;;;5.58;100.00;99748.94;5102528;28;20116;-82
2021/10/13 06:32:38;;;;;;;26.33;13.48;;;;;;;5.58;100.00;99740.88;5109406;28;20194;-82
2021/10/13 06:35:06;;;;;;;27.92;12.80;;;;;;;5.66;100.00;99768.00;5112246;28;20411;-81
2021/10/13 06:37:36;;;;;;;27.23;12.60;;;;;;;5.77;100.00;99771.59;5108355;28;20215;-82
2021/10/13 06:40:03;;;;;;;29.90;13.35;;;;;;;5.85;100.00;99774.44;5109829;28;20441;-82
2021/10/13 06:42:30;;;;;;;28.00;12.38;;;;;;;5.90;100.00;99772.19;5113399;28;20133;-81
2021/10/13 06:44:57;;;;;;;24.55;12.35;;;;;;;5.83;100.00;99773.72;5109319;28;20441;-82
2021/10/13 06:47:58;;;;;;;21.33;11.40;;;;;;;5.93;100.00;99788.09;5114086;28;20049;-82
2021/10/13 06:50:26;;;;;;;24.50;11.48;;;;;;;5.97;100.00;99777.91;5107890;28;20138;-82
2021/10/13 06:52:53;;;;;;;22.67;11.05;;;;;;;5.90;100.00;99787.50;5113278;28;20108;-82
2021/10/13 06:55:20;;;;;;;24.55;12.05;;;;;;;6.02;100.00;99784.59;5113864;28;20050;-82
2021/10/13 06:57:47;;;;;;;28.02;10.73;;;;;;;5.95;100.00;99785.25;5112027;28;20046;-82
2021/10/13 07:00:17;;;;;;;27.15;10.77;;;;;;;6.08;100.00;99790.41;5109694;27;20071;-82
2021/10/13 07:02:43;;;;;;;;;;;;;;;6.15;100.00;99794.25;5111174;28;20043;-82
2021/10/13 07:05:10;;;;;;;20.20;10.93;;;;;;;6.02;100.00;99784.59;5112748;28;19928;-82
2021/10/13 07:07:43;;;;;;;21.02;11.40;;;;;;;6.03;100.00;99794.38;5110587;28;20056;-82
2021/10/13 07:10:10;;;;;;;22.48;11.38;;;;;;;6.02;100.00;99797.19;5111965;28;20082;-82
2021/10/13 07:12:37;;;;;;;19.67;10.35;;;;;;;6.07;100.00;99789.56;5112364;28;20451;-82
2021/10/13 07:15:05;;;;;;;19.77;10.98;;;;;;;6.12;100.00;99789.97;5108071;28;20048;-82
2021/10/13 07:17:32;;;;;;;28.48;11.90;;;;;;;6.20;100.00;99783.88;5105359;28;20509;-82
2021/10/13 07:20:04;;;;;;;26.52;11.35;;;;;;;6.18;100.00;99792.09;5095242;28;20052;-83
2021/10/13 07:22:32;;;;;;;24.77;10.15;;;;;;;6.21;100.00;99785.59;5095101;28;20054;-83
2021/10/13 07:25:01;;;;;;;23.70;10.48;;;;;;;6.22;100.00;99790.00;5094029;28;20097;-83
2021/10/13 07:27:29;;;;;;;19.20;9.85;;;;;;;6.18;100.00;99775.06;5093420;28;20075;-82
2021/10/13 07:29:58;;;;;;;26.40;10.88;;;;;;;6.36;100.00;99784.16;5093292;28;20457;-83
2021/10/13 07:32:26;;;;;;;21.48;9.40;;;;;;;6.38;100.00;99787.59;5093129;28;20044;-82
2021/10/13 07:34:52;;;;;;;20.42;11.20;;;;;;;6.33;100.00;99775.50;5093615;27;20048;-83
2021/10/13 07:37:20;;;;;;;30.48;12.35;;;;;;;6.43;100.00;99789.84;5093096;28;20462;-83
2021/10/13 07:39:47;;;;;;;25.80;12.35;;;;;;;6.59;100.00;99783.84;5093166;28;20454;-83
2021/10/13 07:42:17;;;;;;;27.67;13.82;;;;;;;6.64;100.00;99794.22;5093201;28;20105;-82
2021/10/13 07:44:44;;;;;;;25.77;13.18;;;;;;;6.61;100.00;99797.22;5092955;28;20059;-82
2021/10/13 07:47:11;;;;;;;22.08;11.70;;;;;;;6.62;100.00;99801.63;5093047;28;20074;-83
2021/10/13 07:49:39;;;;;;;26.23;13.63;;;;;;;6.66;100.00;99800.34;5093252;27;20040;-82
2021/10/13 07:52:06;;;;;;;34.90;15.88;;;;;;;6.76;100.00;99813.84;5105541;28;20047;-82
2021/10/13 07:54:34;;;;;;;35.78;16.15;;;;;;;6.94;100.00;99816.66;5113487;28;20100;-82
2021/10/13 07:57:00;;;;;;;33.38;15.55;;;;;;;7.06;100.00;99819.06;5113117;28;20171;-82
2021/10/13 07:59:28;;;;;;;24.60;12.35;;;;;;;7.01;100.00;99807.81;5113080;28;20039;-83
2021/10/13 08:01:55;;;;;;;27.23;10.18;;;;;;;7.17;100.00;99823.44;5113094;28;20048;-82
2021/10/13 08:04:22;;;;;;;26.23;11.25;;;;;;;7.25;100.00;99818.13;5110422;28;20044;-82
2021/10/13 08:06:49;;;;;;;20.13;10.43;;;;;;;7.28;100.00;99817.00;5092550;28;20044;-82
2021/10/13 08:09:19;;;;;;;19.25;11.27;;;;;;;7.35;100.00;99823.50;5092752;28;20044;-82
2021/10/13 08:11:46;;;;;;;19.70;9.95;;;;;;;7.37;100.00;99818.78;5092986;28;20060;-82
2021/10/13 08:14:14;;;;;;;46.28;11.52;;;;;;;7.48;100.00;99823.16;5092870;28;20079;-82
2021/10/13 08:16:42;;;;;;;19.48;9.27;;;;;;;7.31;100.00;99822.09;5092682;28;20052;-82
2021/10/13 08:19:09;;;;;;;16.20;9.93;;;;;;;7.27;100.00;99839.63;5092517;28;20048;-82
2021/10/13 08:21:35;;;;;;;18.65;10.25;;;;;;;7.27;100.00;99834.19;5109863;28;20097;-82
2021/10/13 08:24:02;;;;;;;15.18;9.05;;;;;;;7.28;100.00;99838.63;5102525;28;20097;-82
2021/10/13 08:26:30;;;;;;;17.02;8.65;;;;;;;7.35;100.00;99841.59;5091880;28;20172;-82
2021/10/13 08:28:57;;;;;;;19.00;10.02;;;;;;;7.42;100.00;99856.22;5092462;28;20048;-82
2021/10/13 08:31:24;;;;;;;19.80;9.93;;;;;;;7.47;100.00;99843.13;5092371;28;20051;-82
2021/10/13 08:33:52;;;;;;;18.15;9.32;;;;;;;7.57;100.00;99840.38;5092189;28;20564;-82
2021/10/13 08:36:21;;;;;;;18.33;9.20;;;;;;;7.53;100.00;99833.56;5091869;28;20551;-82
2021/10/13 08:38:47;;;;;;;20.27;9.98;;;;;;;7.52;100.00;99826.44;5105608;28;20120;-82
2021/10/13 08:41:14;;;;;;;17.17;9.90;;;;;;;7.71;100.00;99834.47;5092979;28;20044;-82
2021/10/13 08:43:44;;;;;;;19.60;9.07;;;;;;;7.91;100.00;99835.22;5092140;28;20076;-82
2021/10/13 08:46:11;;;;;;;20.63;10.35;;;;;;;8.17;100.00;99836.34;5092103;28;20048;-82
2021/10/13 08:48:37;;;;;;;15.27;9.23;;;;;;;8.23;100.00;99831.16;5092316;28;20109;-82
2021/10/13 08:51:08;;;;;;;18.65;9.73;;;;;;;8.23;100.00;99841.16;5095949;28;20101;-82
2021/10/13 08:53:35;;;;;;;21.35;12.32;;;;;;;8.34;100.00;99840.94;5105879;28;20047;-82
2021/10/13 08:56:02;;;;;;;19.55;10.23;;;;;;;8.26;100.00;99838.97;5091688;28;20052;-82
2021/10/13 08:58:30;;;;;;;19.42;9.13;;;;;;;8.34;100.00;99843.66;5092282;28;20105;-82
2021/10/13 09:01:12;;;;;;;18.98;9.60;;;;;;;8.28;100.00;99844.22;5092031;28;20040;-82
2021/10/13 09:03:41;;;;;;;17.48;9.90;;;;;;;8.02;100.00;99841.44;5092275;28;20079;-82
2021/10/13 09:06:18;;;;;;;21.27;10.90;;;;;;;8.06;100.00;99843.69;5091686;28;20048;-82
2021/10/13 09:08:56;;;;;;;17.92;9.70;;;;;;;8.09;100.00;99854.19;5092096;28;20051;-82
2021/10/13 09:11:41;;;;;;;20.25;10.52;;;;;;;8.18;100.00;99851.59;5098862;28;20055;-82
2021/10/13 09:14:11;;;;;;;16.85;9.85;;;;;;;8.25;100.00;99836.41;5112425;28;20075;-82
2021/10/13 09:16:52;;;;;;;23.27;11.43;;;;;;;8.45;100.00;99851.56;5112115;28;20453;-82
2021/10/13 09:19:20;;;;;;;25.50;11.15;;;;;;;8.57;100.00;99840.50;5112358;28;20054;-82
2021/10/13 09:21:50;;;;;;;19.40;11.02;;;;;;;8.73;100.00;99846.06;5111948;28;20113;-82
2021/10/13 09:24:18;;;;;;;21.92;10.13;;;;;;;8.58;98.68;99847.59;5112199;28;20051;-82
2021/10/13 09:26:45;;;;;;;17.38;9.23;;;;;;;8.52;99.68;99846.41;5103978;28;20093;-82
2021/10/13 09:29:12;;;;;;;17.52;9.88;;;;;;;8.74;100.00;99855.06;5100472;28;20456;-82
2021/10/13 09:31:39;;;;;;;19.33;11.60;;;;;;;8.91;100.00;99856.03;5112241;28;20047;-82
2021/10/13 09:34:08;;;;;;;16.98;9.63;;;;;;;8.89;98.88;99858.06;5111497;28;20048;-82
2021/10/13 09:36:36;;;;;;;17.20;9.90;;;;;;;8.96;97.74;99867.28;5111650;28;20050;-82
2021/10/13 09:39:10;;;;;;;19.08;10.52;;;;;;;8.94;96.31;99867.44;5115945;28;20047;-82
2021/10/13 09:41:58;;;;;;;16.58;9.38;;;;;;;8.95;100.00;99850.13;5110865;28;20047;-82
2021/10/13 09:44:25;;;;;;;21.15;10.10;;;;;;;8.98;98.11;99855.25;5105891;28;20062;-82
2021/10/13 09:46:56;;;;;;;19.90;9.40;;;;;;;8.83;98.82;99840.53;5115703;28;20043;-83
2021/10/13 09:49:28;;;;;;;17.83;8.75;;;;;;;8.96;98.62;99861.84;5115954;28;20383;-82
2021/10/13 09:52:04;;;;;;;21.10;10.40;;;;;;;8.96;98.73;99849.13;5116019;28;20039;-82
2021/10/13 09:54:33;;;;;;;15.93;8.15;;;;;;;8.86;96.38;99849.22;5115507;27;20060;-82
2021/10/13 09:56:59;;;;;;;15.00;8.82;;;;;;;8.88;97.83;99846.34;5114884;28;20043;-82
2021/10/13 09:59:26;;;;;;;13.65;7.57;;;;;;;9.05;97.92;99860.91;5115182;28;20502;-82
2021/10/13 10:01:58;;;;;;;14.52;7.68;;;;;;;9.19;97.25;99857.59;5102440;28;20044;-82
2021/10/13 10:04:27;;;;;;;17.92;7.78;;;;;;;9.41;96.08;99862.66;5094950;28;20063;-82
2021/10/13 10:06:55;;;;;;;15.02;7.95;;;;;;;9.55;94.12;99859.34;5095150;28;20079;-82
2021/10/13 10:09:24;;;;;;;17.77;8.73;;;;;;;9.45;94.56;99854.03;5094793;28;20051;-82
2021/10/13 10:12:04;;;;;;;15.13;8.77;;;;;;;9.61;96.26;99861.41;5095158;28;20125;-82
2021/10/13 10:14:46;;;;;;;16.73;7.72;;;;;;;9.41;93.57;99852.66;5103448;27;20109;-82
2021/10/13 10:17:15;;;;;;;20.70;9.05;;;;;;;9.47;96.67;99835.72;5099985;28;20066;-82
2021/10/13 10:19:43;;;;;;;15.02;8.73;;;;;;;9.48;96.74;99839.28;5094962;28;20097;-82
2021/10/13 10:22:13;;;;;;;15.48;8.32;;;;;;;9.58;93.81;99842.75;5096016;28;20044;-82
2021/10/13 10:24:49;;;;;;;21.90;9.57;;;;;;;9.94;95.22;99850.72;5114994;28;20048;-82
2021/10/13 10:27:38;;;;;;;18.75;9.50;;;;;;;10.07;91.58;99851.09;5114742;28;20052;-81
2021/10/13 10:30:19;;;;;;;14.38;8.75;;;;;;;10.31;89.89;99852.16;5114277;27;20079;-82
2021/10/13 10:33:02;;;;;;;24.63;9.13;;;;;;;10.06;89.94;99851.25;5114727;28;20448;-82
2021/10/13 10:35:29;;;;;;;22.73;10.18;;;;;;;9.93;94.62;99846.28;5113922;28;20092;-82
2021/10/13 10:38:05;;;;;;;20.90;10.63;;;;;;;9.91;97.81;99857.31;5114741;28;20075;-82
2021/10/13 10:40:35;;;;;;;17.25;9.95;;;;;;;9.82;99.75;99863.72;5115072;28;20108;-82
2021/10/13 10:43:06;;;;;;;24.30;11.33;;;;;;;10.01;98.55;99865.34;5114585;28;20100;-82
2021/10/13 10:45:35;;;;;;;19.55;10.10;;;;;;;10.00;99.31;99866.34;5114357;28;20047;-82
2021/10/13 10:48:13;;;;;;;20.85;10.02;;;;;;;9.96;98.29;99855.97;5082646;28;20055;-82
2021/10/13 10:51:08;;;;;;;18.75;10.77;;;;;;;9.85;98.66;99866.13;5094576;28;20101;-82
2021/10/13 10:53:40;;;;;;;19.00;9.45;;;;;;;9.83;96.45;99856.41;5114578;28;20048;-82
2021/10/13 10:56:27;;;;;;;21.70;10.63;;;;;;;9.84;97.83;99848.09;5114443;28;20191;-82
2021/10/13 10:59:14;;;;;;;16.08;8.77;;;;;;;9.86;95.14;99864.25;5114408;28;20059;-82
2021/10/13 11:02:08;;;;;;;18.58;9.73;;;;;;;9.91;95.05;99856.47;5114298;27;20047;-82
2021/10/13 11:04:35;;;;;;;20.35;8.98;;;;;;;9.95;96.84;99854.25;5093348;28;20079;-82
2021/10/13 11:07:03;;;;;;;19.88;7.78;;;;;;;9.92;94.31;99860.88;5094026;28;20060;-82
2021/10/13 11:09:30;;;;;;;16.75;8.32;;;;;;;9.91;94.33;99859.19;5093640;28;20044;-82
2021/10/13 11:11:57;;;;;;;15.73;8.48;;;;;;;9.90;92.67;99868.34;5094022;28;20048;-82
2021/10/13 11:14:25;;;;;;;14.45;7.75;;;;;;;9.79;93.27;99863.22;5093424;28;20101;-82
2021/10/13 11:16:55;;;;;;;19.92;7.22;;;;;;;9.62;93.09;99865.84;5093713;28;20047;-82
2021/10/13 11:19:24;;;;;;;13.55;5.93;;;;;;;9.56;95.19;99861.91;5093615;28;20051;-82
2021/10/13 11:22:00;;;;;;;15.25;5.93;;;;;;;9.42;94.93;99869.78;5103085;28;20097;-82
2021/10/13 11:24:27;;;;;;;15.25;6.15;;;;;;;9.22;96.05;99853.72;5113284;28;20043;-82
2021/10/13 11:26:53;;;;;;;11.18;6.18;;;;;;;9.29;97.18;99848.50;5113751;28;20056;-82
2021/10/13 11:29:23;;;;;;;14.50;8.40;;;;;;;9.39;96.70;99862.81;5113728;28;20048;-82
2021/10/13 11:32:03;;;;;;;20.58;9.50;;;;;;;9.51;95.89;99860.69;5113839;28;20097;-82
2021/10/13 11:34:30;;;;;;;16.80;10.02;;;;;;;9.69;97.78;99868.75;5113212;27;20116;-82
2021/10/13 11:36:58;;;;;;;15.00;8.95;;;;;;;9.74;95.47;99869.13;5111778;27;20487;-82